createdAt,value
2018-10-12T00:00:53.146Z,19.40
2018-10-12T00:01:53.139Z,19.34
2018-10-12T00:02:53.136Z,19.37
2018-10-12T00:03:53.129Z,19.36
2018-10-12T00:04:53.129Z,19.26
2018-10-12T00:05:53.117Z,19.18
2018-10-12T00:06:53.111Z,19.16
2018-10-12T00:07:53.109Z,19.12
2018-10-12T00:08:53.102Z,19.08
2018-10-12T00:09:53.098Z,19.11
2018-10-12T00:10:53.090Z,19.00
2018-10-12T00:11:53.085Z,19.00
2018-10-12T00:12:53.078Z,18.93
2018-10-12T00:13:53.072Z,18.77
2018-10-12T00:14:53.068Z,18.92
2018-10-12T00:15:53.063Z,18.78
2018-10-12T00:16:53.107Z,18.81
2018-10-12T00:17:53.051Z,18.68
2018-10-12T00:18:53.044Z,18.70
2018-10-12T00:19:53.040Z,18.63
2018-10-12T00:20:53.038Z,18.62
2018-10-12T00:21:53.029Z,18.58
2018-10-12T00:22:53.022Z,18.50
2018-10-12T00:23:53.018Z,18.56
2018-10-12T00:24:53.012Z,18.55
2018-10-12T00:25:53.007Z,18.63
2018-10-12T00:26:53.001Z,18.68
2018-10-12T00:27:53.246Z,18.77
2018-10-12T00:28:52.990Z,18.70
2018-10-12T00:29:52.984Z,18.73
2018-10-12T00:30:52.979Z,18.70
2018-10-12T00:31:52.973Z,18.81
2018-10-12T00:32:52.969Z,18.74
2018-10-12T00:33:52.960Z,18.71
2018-10-12T00:34:52.956Z,18.75
2018-10-12T00:35:52.951Z,18.75
2018-10-12T00:36:52.945Z,18.66
2018-10-12T00:37:52.938Z,18.58
2018-10-12T00:38:52.935Z,18.56
2018-10-12T00:39:52.928Z,18.58
2018-10-12T00:40:52.922Z,18.62
2018-10-12T00:41:52.917Z,18.60
2018-10-12T00:42:52.911Z,18.58
2018-10-12T00:43:52.906Z,18.58
2018-10-12T00:44:52.903Z,18.58
2018-10-12T00:45:52.894Z,18.56
2018-10-12T00:46:52.889Z,18.60
2018-10-12T00:47:52.883Z,18.60
2018-10-12T00:48:52.878Z,18.66
2018-10-12T00:49:52.925Z,18.74
2018-10-12T00:50:52.866Z,18.84
2018-10-12T00:51:52.861Z,18.75
2018-10-12T00:52:52.857Z,18.81
2018-10-12T00:53:52.848Z,18.73
2018-10-12T00:54:52.843Z,18.74
2018-10-12T00:55:52.838Z,18.86
2018-10-12T00:56:52.834Z,18.74
2018-10-12T00:57:52.826Z,18.71
2018-10-12T00:58:52.821Z,18.59
2018-10-12T00:59:52.815Z,18.56
2018-10-12T01:00:52.813Z,18.62
2018-10-12T01:01:52.803Z,18.53
2018-10-12T01:02:52.798Z,18.56
2018-10-12T01:03:52.795Z,18.49
2018-10-12T01:04:52.788Z,18.53
2018-10-12T01:05:52.781Z,18.50
2018-10-12T01:06:52.776Z,18.55
2018-10-12T01:07:52.770Z,18.74
2018-10-12T01:08:52.765Z,18.65
2018-10-12T01:09:52.758Z,18.59
2018-10-12T01:10:52.754Z,18.58
2018-10-12T01:11:52.750Z,18.62
2018-10-12T01:12:52.742Z,18.60
2018-10-12T01:13:52.737Z,18.60
2018-10-12T01:14:52.729Z,18.52
2018-10-12T01:15:52.723Z,18.58
2018-10-12T01:16:52.718Z,18.43
2018-10-12T01:17:52.711Z,18.31
2018-10-12T01:18:52.705Z,18.31
2018-10-12T01:19:52.699Z,18.25
2018-10-12T01:20:52.698Z,18.22
2018-10-12T01:21:52.688Z,18.31
2018-10-12T01:22:52.682Z,18.25
2018-10-12T01:23:52.676Z,18.37
2018-10-12T01:24:52.670Z,18.28
2018-10-12T01:25:52.664Z,18.26
2018-10-12T01:26:52.658Z,18.35
2018-10-12T01:27:52.654Z,18.44
2018-10-12T01:28:52.646Z,18.37
2018-10-12T01:29:52.640Z,18.43
2018-10-12T01:30:52.634Z,18.40
2018-10-12T01:31:52.628Z,18.38
2018-10-12T01:32:52.622Z,18.31
2018-10-12T01:33:52.616Z,18.40
2018-10-12T01:34:52.610Z,18.49
2018-10-12T01:35:52.605Z,18.50
2018-10-12T01:36:52.598Z,18.49
2018-10-12T01:37:52.591Z,18.44
2018-10-12T01:38:52.585Z,18.34
2018-10-12T01:39:52.580Z,18.37
2018-10-12T01:40:52.574Z,18.33
2018-10-12T01:41:52.570Z,18.31
2018-10-12T01:42:52.563Z,18.26
2018-10-12T01:43:52.556Z,18.29
2018-10-12T01:44:52.550Z,18.19
2018-10-12T01:45:52.543Z,18.19
2018-10-12T01:46:52.537Z,18.13
2018-10-12T01:47:52.531Z,18.15
2018-10-12T01:48:52.525Z,18.10
2018-10-12T01:49:52.520Z,18.13
2018-10-12T01:50:52.513Z,18.16
2018-10-12T01:51:52.507Z,18.19
2018-10-12T01:52:52.501Z,18.13
2018-10-12T01:53:52.495Z,18.19
2018-10-12T01:54:52.488Z,18.23
2018-10-12T01:55:52.483Z,18.18
2018-10-12T01:56:52.477Z,18.13
2018-10-12T01:57:52.473Z,18.10
2018-10-12T01:58:52.465Z,18.16
2018-10-12T01:59:52.459Z,18.08
2018-10-12T02:00:52.453Z,18.15
2018-10-12T02:01:52.447Z,18.13
2018-10-12T02:02:52.449Z,18.15
2018-10-12T02:03:52.460Z,18.07
2018-10-12T02:04:52.432Z,18.01
2018-10-12T02:05:52.423Z,18.07
2018-10-12T02:06:52.417Z,18.01
2018-10-12T02:07:52.414Z,18.05
2018-10-12T02:08:52.405Z,18.07
2018-10-12T02:09:52.426Z,18.07
2018-10-12T02:10:52.393Z,17.98
2018-10-12T02:11:52.386Z,17.97
2018-10-12T02:12:52.381Z,17.97
2018-10-12T02:13:52.375Z,17.97
2018-10-12T02:14:52.373Z,18.05
2018-10-12T02:15:52.363Z,17.97
2018-10-12T02:16:52.358Z,18.07
2018-10-12T02:17:52.350Z,18.04
2018-10-12T02:18:52.345Z,18.03
2018-10-12T02:19:52.343Z,18.01
2018-10-12T02:20:52.334Z,18.15
2018-10-12T02:21:52.326Z,18.18
2018-10-12T02:22:52.321Z,18.20
2018-10-12T02:23:52.316Z,18.22
2018-10-12T02:24:52.311Z,18.28
2018-10-12T02:25:52.304Z,18.20
2018-10-12T02:26:52.298Z,18.20
2018-10-12T02:27:52.294Z,18.19
2018-10-12T02:28:52.288Z,18.31
2018-10-12T02:29:52.281Z,18.23
2018-10-12T02:30:52.276Z,18.25
2018-10-12T02:31:52.270Z,18.35
2018-10-12T02:32:52.264Z,18.37
2018-10-12T02:33:52.256Z,18.33
2018-10-12T02:34:52.252Z,18.26
2018-10-12T02:35:52.252Z,18.34
2018-10-12T02:36:52.241Z,18.26
2018-10-12T02:37:52.234Z,18.23
2018-10-12T02:38:52.330Z,18.22
2018-10-12T02:39:52.224Z,18.29
2018-10-12T02:40:52.219Z,18.25
2018-10-12T02:41:52.212Z,18.29
2018-10-12T02:42:52.207Z,18.34
2018-10-12T02:43:52.201Z,18.28
2018-10-12T02:44:52.196Z,18.34
2018-10-12T02:45:52.189Z,18.22
2018-10-12T02:46:52.184Z,18.25
2018-10-12T02:47:52.180Z,18.18
2018-10-12T02:48:52.172Z,18.10
2018-10-12T02:49:52.165Z,18.15
2018-10-12T02:50:52.160Z,18.08
2018-10-12T02:51:52.154Z,18.10
2018-10-12T02:52:52.152Z,18.22
2018-10-12T02:53:52.140Z,18.22
2018-10-12T02:54:52.137Z,18.15
2018-10-12T02:55:52.129Z,18.10
2018-10-12T02:56:52.124Z,18.15
2018-10-12T02:57:52.119Z,18.11
2018-10-12T02:58:52.118Z,18.01
2018-10-12T02:59:52.108Z,18.03
2018-10-12T03:00:52.101Z,18.08
2018-10-12T03:01:52.093Z,18.08
2018-10-12T03:02:52.088Z,17.94
2018-10-12T03:03:52.082Z,17.87
2018-10-12T03:04:52.076Z,17.94
2018-10-12T03:05:52.069Z,17.97
2018-10-12T03:06:52.063Z,17.97
2018-10-12T03:07:52.059Z,17.82
2018-10-12T03:08:52.052Z,17.71
2018-10-12T03:09:52.044Z,17.78
2018-10-12T03:10:52.039Z,17.72
2018-10-12T03:11:52.037Z,17.71
2018-10-12T03:12:52.027Z,17.65
2018-10-12T03:13:52.021Z,17.71
2018-10-12T03:14:52.014Z,17.71
2018-10-12T03:15:52.007Z,17.70
2018-10-12T03:16:52.003Z,17.68
2018-10-12T03:17:51.997Z,17.60
2018-10-12T03:18:52.001Z,17.68
2018-10-12T03:19:51.984Z,17.54
2018-10-12T03:20:51.979Z,17.46
2018-10-12T03:21:51.971Z,17.38
2018-10-12T03:22:51.965Z,17.33
2018-10-12T03:23:51.959Z,17.36
2018-10-12T03:24:51.953Z,17.31
2018-10-12T03:25:51.947Z,17.36
2018-10-12T03:26:51.940Z,17.29
2018-10-12T03:27:51.935Z,17.24
2018-10-12T03:28:51.929Z,17.11
2018-10-12T03:29:51.924Z,17.12
2018-10-12T03:30:51.916Z,17.14
2018-10-12T03:31:51.925Z,17.16
2018-10-12T03:32:51.905Z,17.22
2018-10-12T03:33:51.899Z,17.34
2018-10-12T03:34:51.894Z,17.31
2018-10-12T03:35:51.892Z,17.30
2018-10-12T03:36:51.880Z,17.24
2018-10-12T03:37:51.874Z,17.30
2018-10-12T03:38:51.867Z,17.16
2018-10-12T03:39:51.861Z,17.09
2018-10-12T03:40:51.855Z,17.12
2018-10-12T03:41:51.849Z,17.12
2018-10-12T03:42:51.844Z,17.20
2018-10-12T03:43:51.840Z,17.23
2018-10-12T03:44:51.831Z,17.33
2018-10-12T03:45:51.824Z,17.20
2018-10-12T03:46:51.818Z,17.24
2018-10-12T03:47:51.812Z,17.23
2018-10-12T03:48:51.810Z,17.12
2018-10-12T03:49:51.799Z,17.23
2018-10-12T03:50:51.792Z,17.22
2018-10-12T03:51:51.798Z,17.30
2018-10-12T03:52:51.780Z,17.31
2018-10-12T03:53:51.774Z,17.31
2018-10-12T03:54:51.768Z,17.29
2018-10-12T03:55:51.766Z,17.31
2018-10-12T03:56:51.755Z,17.27
2018-10-12T03:57:51.751Z,17.42
2018-10-12T03:58:51.741Z,17.42
2018-10-12T03:59:51.735Z,17.39
2018-10-12T04:00:51.980Z,17.39
2018-10-12T04:01:51.721Z,17.30
2018-10-12T04:02:51.850Z,17.41
2018-10-12T04:03:51.710Z,17.31
2018-10-12T04:04:51.702Z,17.30
2018-10-12T04:05:51.901Z,17.26
2018-10-12T04:06:51.691Z,17.23
2018-10-12T04:07:51.685Z,17.22
2018-10-12T04:08:51.677Z,17.19
2018-10-12T04:09:51.673Z,17.20
2018-10-12T04:10:51.668Z,17.22
2018-10-12T04:11:51.662Z,17.22
2018-10-12T04:12:51.653Z,17.16
2018-10-12T04:13:51.647Z,17.16
2018-10-12T04:14:51.640Z,17.19
2018-10-12T04:15:51.635Z,17.15
2018-10-12T04:16:51.628Z,17.14
2018-10-12T04:17:51.621Z,17.06
2018-10-12T04:18:51.618Z,17.04
2018-10-12T04:19:51.610Z,17.08
2018-10-12T04:20:51.609Z,16.97
2018-10-12T04:21:51.595Z,17.06
2018-10-12T04:22:51.588Z,17.09
2018-10-12T04:23:51.585Z,17.05
2018-10-12T04:24:51.576Z,17.08
2018-10-12T04:25:51.569Z,17.05
2018-10-12T04:26:51.597Z,16.97
2018-10-12T04:27:51.557Z,16.94
2018-10-12T04:28:51.551Z,16.99
2018-10-12T04:29:51.544Z,16.86
2018-10-12T04:30:51.536Z,16.93
2018-10-12T04:31:51.531Z,17.02
2018-10-12T04:32:51.526Z,17.09
2018-10-12T04:33:51.518Z,17.06
2018-10-12T04:34:51.512Z,17.19
2018-10-12T04:35:51.507Z,17.16
2018-10-12T04:36:51.500Z,17.23
2018-10-12T04:37:51.491Z,17.19
2018-10-12T04:38:51.486Z,17.12
2018-10-12T04:39:51.480Z,17.09
2018-10-12T04:40:51.473Z,17.02
2018-10-12T04:41:51.467Z,16.97
2018-10-12T04:42:51.459Z,17.02
2018-10-12T04:43:51.453Z,16.96
2018-10-12T04:44:51.447Z,16.99
2018-10-12T04:45:51.443Z,16.97
2018-10-12T04:46:51.434Z,16.99
2018-10-12T04:47:51.427Z,16.93
2018-10-12T04:48:51.422Z,17.01
2018-10-12T04:49:51.415Z,16.91
2018-10-12T04:50:51.409Z,16.76
2018-10-12T04:51:51.401Z,16.86
2018-10-12T04:52:51.394Z,16.91
2018-10-12T04:53:51.491Z,16.86
2018-10-12T04:54:51.381Z,16.86
2018-10-12T04:55:51.374Z,16.86
2018-10-12T04:56:51.369Z,16.86
2018-10-12T04:57:51.364Z,16.90
2018-10-12T04:58:51.355Z,16.79
2018-10-12T04:59:51.350Z,16.74
2018-10-12T05:00:51.369Z,16.71
2018-10-12T05:01:51.335Z,16.64
2018-10-12T05:02:51.331Z,16.49
2018-10-12T05:03:51.324Z,16.47
2018-10-12T05:04:51.316Z,16.61
2018-10-12T05:05:51.311Z,16.57
2018-10-12T05:06:51.302Z,16.53
2018-10-12T05:07:51.428Z,16.47
2018-10-12T05:08:51.290Z,16.49
2018-10-12T05:09:51.283Z,16.43
2018-10-12T05:10:51.277Z,16.46
2018-10-12T05:11:51.273Z,16.39
2018-10-12T05:12:51.264Z,16.47
2018-10-12T05:13:51.257Z,16.49
2018-10-12T05:14:51.250Z,16.57
2018-10-12T05:15:51.244Z,16.57
2018-10-12T05:16:51.239Z,16.58
2018-10-12T05:17:51.230Z,16.64
2018-10-12T05:18:51.229Z,16.57
2018-10-12T05:19:51.221Z,16.51
2018-10-12T05:20:51.212Z,16.56
2018-10-12T05:21:51.265Z,16.65
2018-10-12T05:22:51.198Z,16.56
2018-10-12T05:23:51.193Z,16.50
2018-10-12T05:24:51.187Z,16.61
2018-10-12T05:25:51.179Z,16.64
2018-10-12T05:26:51.175Z,16.50
2018-10-12T05:27:51.166Z,16.53
2018-10-12T05:28:51.160Z,16.49
2018-10-12T05:29:51.152Z,16.46
2018-10-12T05:30:51.145Z,16.46
2018-10-12T05:31:51.144Z,16.39
2018-10-12T05:32:51.136Z,16.38
2018-10-12T05:33:51.125Z,16.38
2018-10-12T05:34:51.120Z,16.26
2018-10-12T05:35:51.164Z,16.17
2018-10-12T05:36:51.108Z,16.23
2018-10-12T05:37:51.100Z,16.21
2018-10-12T05:38:51.092Z,16.24
2018-10-12T05:39:51.088Z,16.28
2018-10-12T05:40:51.081Z,16.29
2018-10-12T05:41:51.081Z,16.32
2018-10-12T05:42:51.151Z,16.29
2018-10-12T05:43:51.103Z,16.23
2018-10-12T05:44:51.054Z,16.13
2018-10-12T05:45:51.049Z,16.13
2018-10-12T05:46:51.042Z,16.13
2018-10-12T05:47:51.051Z,16.04
2018-10-12T05:48:51.100Z,15.98
2018-10-12T05:49:51.022Z,15.86
2018-10-12T05:50:51.018Z,16.00
2018-10-12T05:51:51.009Z,15.94
2018-10-12T05:52:51.004Z,15.86
2018-10-12T05:53:50.996Z,15.97
2018-10-12T05:54:50.990Z,15.91
2018-10-12T05:55:51.115Z,15.86
2018-10-12T05:56:50.976Z,15.88
2018-10-12T05:57:50.969Z,15.80
2018-10-12T05:58:50.967Z,15.90
2018-10-12T05:59:50.959Z,15.98
2018-10-12T06:00:50.953Z,15.97
2018-10-12T06:01:50.947Z,15.94
2018-10-12T06:02:50.949Z,15.92
2018-10-12T06:03:50.939Z,16.04
2018-10-12T06:04:50.926Z,15.98
2018-10-12T06:05:50.919Z,16.04
2018-10-12T06:06:50.913Z,16.00
2018-10-12T06:07:50.907Z,16.02
2018-10-12T06:08:50.903Z,15.98
2018-10-12T06:09:51.020Z,16.08
2018-10-12T06:10:50.887Z,16.01
2018-10-12T06:11:50.882Z,16.01
2018-10-12T06:12:50.877Z,16.04
2018-10-12T06:13:50.873Z,16.00
2018-10-12T06:14:50.866Z,15.97
2018-10-12T06:15:50.863Z,15.84
2018-10-12T06:16:50.853Z,15.86
2018-10-12T06:17:50.842Z,15.98
2018-10-12T06:18:50.838Z,15.91
2018-10-12T06:19:50.832Z,15.90
2018-10-12T06:20:50.825Z,15.90
2018-10-12T06:21:50.822Z,15.91
2018-10-12T06:22:50.813Z,15.97
2018-10-12T06:23:50.803Z,16.10
2018-10-12T06:24:50.803Z,16.31
2018-10-12T06:25:50.791Z,16.24
2018-10-12T06:26:50.880Z,16.31
2018-10-12T06:27:50.780Z,16.23
2018-10-12T06:28:50.774Z,16.23
2018-10-12T06:29:50.768Z,16.26
2018-10-12T06:30:50.761Z,16.28
2018-10-12T06:31:50.755Z,16.38
2018-10-12T06:32:50.811Z,16.41
2018-10-12T06:33:50.743Z,16.41
2018-10-12T06:34:50.739Z,16.41
2018-10-12T06:35:50.730Z,16.54
2018-10-12T06:36:50.733Z,16.66
2018-10-12T06:37:50.766Z,16.71
2018-10-12T06:38:50.712Z,16.81
2018-10-12T06:39:50.706Z,16.76
2018-10-12T06:40:50.748Z,16.89
2018-10-12T06:41:50.976Z,16.91
2018-10-12T06:42:50.691Z,16.93
2018-10-12T06:43:50.682Z,16.91
2018-10-12T06:45:50.669Z,16.94
2018-10-12T06:46:50.667Z,16.97
2018-10-12T06:47:50.659Z,17.02
2018-10-12T06:48:50.856Z,17.08
2018-10-12T06:49:50.649Z,17.08
2018-10-12T06:50:50.640Z,17.24
2018-10-12T06:51:50.640Z,17.29
2018-10-12T06:52:50.632Z,17.41
2018-10-12T06:53:50.681Z,17.39
2018-10-12T06:54:50.618Z,17.52
2018-10-12T06:55:50.611Z,17.54
2018-10-12T06:56:50.607Z,17.54
2018-10-12T06:57:50.601Z,17.59
2018-10-12T06:58:50.598Z,17.64
2018-10-12T06:59:50.606Z,17.59
2018-10-12T07:00:50.584Z,17.57
2018-10-12T07:01:50.579Z,17.70
2018-10-12T07:02:50.577Z,17.79
2018-10-12T07:03:50.572Z,17.79
2018-10-12T07:04:50.563Z,17.74
2018-10-12T07:05:50.557Z,17.79
2018-10-12T07:06:50.552Z,17.92
2018-10-12T07:07:50.547Z,18.07
2018-10-12T07:08:50.547Z,18.03
2018-10-12T07:09:50.536Z,18.13
2018-10-12T07:10:50.531Z,18.25
2018-10-12T07:11:50.526Z,18.26
2018-10-12T07:12:50.521Z,18.29
2018-10-12T07:13:50.591Z,18.37
2018-10-12T07:14:50.712Z,18.44
2018-10-12T07:15:50.509Z,18.52
2018-10-12T07:16:50.503Z,18.53
2018-10-12T07:17:50.496Z,18.50
2018-10-12T07:18:50.492Z,18.52
2018-10-12T07:19:50.487Z,18.59
2018-10-12T07:20:50.480Z,18.55
2018-10-12T07:21:50.475Z,18.56
2018-10-12T07:22:50.470Z,18.56
2018-10-12T07:23:50.465Z,18.70
2018-10-12T07:24:50.460Z,18.68
2018-10-12T07:25:50.465Z,18.65
2018-10-12T07:26:50.455Z,18.70
2018-10-12T07:27:50.445Z,18.71
2018-10-12T07:28:50.440Z,18.73
2018-10-12T07:29:50.434Z,18.77
2018-10-12T07:30:50.432Z,18.73
2018-10-12T07:31:50.676Z,18.78
2018-10-12T07:32:50.421Z,18.78
2018-10-12T07:33:50.418Z,18.81
2018-10-12T07:34:50.409Z,18.86
2018-10-12T07:35:50.409Z,18.84
2018-10-12T07:36:50.403Z,18.96
2018-10-12T07:37:50.396Z,18.98
2018-10-12T07:38:50.392Z,19.00
2018-10-12T07:39:50.389Z,18.98
2018-10-12T07:40:50.388Z,18.92
2018-10-12T07:41:50.379Z,18.90
2018-10-12T07:42:50.374Z,18.96
2018-10-12T07:43:50.369Z,18.95
2018-10-12T07:44:50.364Z,18.93
2018-10-12T07:45:50.359Z,19.00
2018-10-12T07:46:50.359Z,19.02
2018-10-12T07:47:50.351Z,18.99
2018-10-12T07:48:50.348Z,19.15
2018-10-12T07:49:50.343Z,19.08
2018-10-12T07:50:50.337Z,19.15
2018-10-12T07:51:50.532Z,19.15
2018-10-12T07:52:50.331Z,19.18
2018-10-12T07:53:50.321Z,19.22
2018-10-12T07:54:50.317Z,19.15
2018-10-12T07:55:50.313Z,19.16
2018-10-12T07:56:50.309Z,19.19
2018-10-12T07:57:50.303Z,19.24
2018-10-12T07:58:50.299Z,19.22
2018-10-12T07:59:50.295Z,19.30
2018-10-12T08:00:50.291Z,19.26
2018-10-12T08:01:50.537Z,19.26
2018-10-12T08:02:50.284Z,19.27
2018-10-12T08:03:50.278Z,19.36
2018-10-12T08:04:50.272Z,19.36
2018-10-12T08:05:50.267Z,19.45
2018-10-12T08:06:50.325Z,19.54
2018-10-12T08:07:50.259Z,19.44
2018-10-12T08:08:50.255Z,19.47
2018-10-12T08:09:50.250Z,19.49
2018-10-12T08:10:50.249Z,19.49
2018-10-12T08:11:50.249Z,19.49
2018-10-12T08:12:50.238Z,19.49
2018-10-12T08:13:50.359Z,19.55
2018-10-12T08:14:50.231Z,19.63
2018-10-12T08:15:50.225Z,19.69
2018-10-12T08:16:50.221Z,19.67
2018-10-12T08:17:50.215Z,19.67
2018-10-12T08:18:50.211Z,19.67
2018-10-12T08:19:50.208Z,19.71
2018-10-12T08:20:50.206Z,19.76
2018-10-12T08:21:50.200Z,19.96
2018-10-12T08:22:50.195Z,19.92
2018-10-12T08:23:50.193Z,19.96
2018-10-12T08:24:50.191Z,20.06
2018-10-12T08:25:50.187Z,20.00
2018-10-12T08:26:50.212Z,20.09
2018-10-12T08:27:50.179Z,20.16
2018-10-12T08:28:50.174Z,20.18
2018-10-12T08:29:50.176Z,20.34
2018-10-12T08:30:50.167Z,20.75
2018-10-12T08:31:50.165Z,21.02
2018-10-12T08:32:50.163Z,21.40
2018-10-12T08:33:50.160Z,21.82
2018-10-12T08:34:50.161Z,22.04
2018-10-12T08:35:50.159Z,22.41
2018-10-12T08:36:50.164Z,22.62
2018-10-12T08:37:50.161Z,22.76
2018-10-12T08:38:50.164Z,23.21
2018-10-12T08:39:50.163Z,23.28
2018-10-12T08:40:50.165Z,23.27
2018-10-12T08:41:50.199Z,23.59
2018-10-12T08:42:50.169Z,23.69
2018-10-12T08:43:50.174Z,23.81
2018-10-12T08:44:50.178Z,23.47
2018-10-12T08:46:50.184Z,23.05
2018-10-12T08:47:50.189Z,23.20
2018-10-12T08:48:50.194Z,23.31
2018-10-12T08:49:50.197Z,23.54
2018-10-12T08:50:50.199Z,23.73
2018-10-12T08:51:50.204Z,23.65
2018-10-12T08:52:50.207Z,23.66
2018-10-12T08:53:50.216Z,23.54
2018-10-12T08:54:50.418Z,23.37
2018-10-12T08:55:50.223Z,22.94
2018-10-12T08:56:50.230Z,22.63
2018-10-12T08:57:50.234Z,22.44
2018-10-12T08:58:50.229Z,22.36
2018-10-12T08:59:50.433Z,22.66
2018-10-12T09:00:50.235Z,22.93
2018-10-12T09:01:50.445Z,23.31
2018-10-12T09:02:50.270Z,23.59
2018-10-12T09:03:50.245Z,23.86
2018-10-12T09:04:50.250Z,23.81
2018-10-12T09:05:50.253Z,23.93
2018-10-12T09:06:50.262Z,24.05
2018-10-12T09:07:50.267Z,24.14
2018-10-12T09:08:50.275Z,24.28
2018-10-12T09:09:50.333Z,24.60
2018-10-12T09:10:50.282Z,24.73
2018-10-12T09:11:50.286Z,24.73
2018-10-12T09:12:50.297Z,24.88
2018-10-12T09:13:50.299Z,24.98
2018-10-12T09:14:50.306Z,25.14
2018-10-12T09:15:50.312Z,25.23
2018-10-12T09:16:50.319Z,25.43
2018-10-12T09:17:50.530Z,25.22
2018-10-12T09:18:50.334Z,25.06
2018-10-12T09:19:50.341Z,25.14
2018-10-12T09:20:50.661Z,24.99
2018-10-12T09:21:50.415Z,25.10
2018-10-12T09:22:50.373Z,24.88
2018-10-12T09:23:50.371Z,24.69
2018-10-12T09:24:50.378Z,24.80
2018-10-12T09:25:50.385Z,25.08
2018-10-12T09:26:50.403Z,25.23
2018-10-12T09:27:50.401Z,25.07
2018-10-12T09:28:50.409Z,24.96
2018-10-12T09:29:50.415Z,25.16
2018-10-12T09:30:50.421Z,25.16
2018-10-12T09:31:50.430Z,25.17
2018-10-12T09:32:50.438Z,25.46
2018-10-12T09:33:50.445Z,25.60
2018-10-12T09:34:50.453Z,26.00
2018-10-12T09:35:50.463Z,26.02
2018-10-12T09:36:50.473Z,25.77
2018-10-12T09:37:50.481Z,25.75
2018-10-12T09:38:50.484Z,25.41
2018-10-12T09:39:50.491Z,25.43
2018-10-12T09:40:50.504Z,25.72
2018-10-12T09:41:50.511Z,25.78
2018-10-12T09:42:50.515Z,25.91
2018-10-12T09:43:50.522Z,25.91
2018-10-12T09:44:50.536Z,25.91
2018-10-12T09:45:50.538Z,25.84
2018-10-12T09:46:50.546Z,25.91
2018-10-12T09:47:50.554Z,25.85
2018-10-12T09:48:50.562Z,25.60
2018-10-12T09:49:50.570Z,25.72
2018-10-12T09:50:50.578Z,25.38
2018-10-12T09:51:50.586Z,25.11
2018-10-12T09:52:50.592Z,24.89
2018-10-12T09:53:50.602Z,24.91
2018-10-12T09:54:50.605Z,25.01
2018-10-12T09:55:50.645Z,24.96
2018-10-12T09:56:50.620Z,25.18
2018-10-12T09:57:50.626Z,25.18
2018-10-12T09:58:50.636Z,25.16
2018-10-12T09:59:50.641Z,25.08
2018-10-12T10:00:50.646Z,24.99
2018-10-12T10:01:50.773Z,24.98
2018-10-12T10:02:50.659Z,24.68
2018-10-12T10:03:50.666Z,24.98
2018-10-12T10:04:50.676Z,25.40
2018-10-12T10:06:50.685Z,25.85
2018-10-12T10:07:50.842Z,25.88
2018-10-12T10:08:50.784Z,25.81
2018-10-12T10:09:50.705Z,25.40
2018-10-12T10:10:50.715Z,25.41
2018-10-12T10:11:50.718Z,25.63
2018-10-12T10:12:50.726Z,25.73
2018-10-12T10:13:50.796Z,25.85
2018-10-12T10:14:50.738Z,25.87
2018-10-12T10:15:50.747Z,25.87
2018-10-12T10:16:50.755Z,26.23
2018-10-12T10:17:50.764Z,26.44
2018-10-12T10:18:50.769Z,26.70
2018-10-12T10:19:50.779Z,27.02
2018-10-12T10:20:50.783Z,27.18
2018-10-12T10:21:50.794Z,27.42
2018-10-12T10:22:50.799Z,27.35
2018-10-12T10:23:50.808Z,27.44
2018-10-12T10:24:50.878Z,27.68
2018-10-12T10:25:50.826Z,27.93
2018-10-12T10:27:50.844Z,28.00
2018-10-12T10:28:50.857Z,27.90
2018-10-12T10:29:50.865Z,27.93
2018-10-12T10:30:50.872Z,27.89
2018-10-12T10:31:50.881Z,28.15
2018-10-12T10:32:50.891Z,28.10
2018-10-12T10:33:50.908Z,27.95
2018-10-12T10:34:50.912Z,27.73
2018-10-12T10:35:50.919Z,27.45
2018-10-12T10:36:50.928Z,27.20
2018-10-12T10:37:50.936Z,27.14
2018-10-12T10:38:50.997Z,27.37
2018-10-12T10:39:50.958Z,27.30
2018-10-12T10:40:50.963Z,27.22
2018-10-12T10:41:50.971Z,26.93
2018-10-12T10:42:50.979Z,27.21
2018-10-12T10:43:50.989Z,27.39
2018-10-12T10:44:51.001Z,27.45
2018-10-12T10:45:51.003Z,27.48
2018-10-12T10:46:51.012Z,27.60
2018-10-12T10:47:51.028Z,27.55
2018-10-12T10:48:51.031Z,27.36
2018-10-12T10:50:51.047Z,27.39
2018-10-12T10:51:51.053Z,27.42
2018-10-12T10:52:51.066Z,27.52
2018-10-12T10:53:51.069Z,27.54
2018-10-12T10:54:51.076Z,27.58
2018-10-12T10:55:51.090Z,27.67
2018-10-12T10:56:51.094Z,27.77
2018-10-12T10:57:51.304Z,27.93
2018-10-12T10:58:51.112Z,27.78
2018-10-12T10:59:51.118Z,27.90
2018-10-12T11:00:51.153Z,27.90
2018-10-12T11:01:51.133Z,27.90
2018-10-12T11:02:51.349Z,27.93
2018-10-12T11:03:51.152Z,27.85
2018-10-12T11:04:51.157Z,27.85
2018-10-12T11:05:51.166Z,27.45
2018-10-12T11:06:51.175Z,27.40
2018-10-12T11:07:51.182Z,27.25
2018-10-12T11:08:51.186Z,27.10
2018-10-12T11:09:51.190Z,27.07
2018-10-12T11:10:51.197Z,27.05
2018-10-12T11:11:51.205Z,26.90
2018-10-12T11:12:51.653Z,26.70
2018-10-12T11:13:51.213Z,26.55
2018-10-12T11:14:51.220Z,26.66
2018-10-12T11:15:51.228Z,26.83
2018-10-12T11:16:51.235Z,27.25
2018-10-12T11:17:51.235Z,27.42
2018-10-12T11:18:51.242Z,27.37
2018-10-12T11:19:51.254Z,27.42
2018-10-12T11:20:51.253Z,27.55
2018-10-12T11:21:51.260Z,27.48
2018-10-12T11:22:51.268Z,27.63
2018-10-12T11:23:51.271Z,27.85
2018-10-12T11:24:51.276Z,27.85
2018-10-12T11:25:51.281Z,27.90
2018-10-12T11:26:51.358Z,28.01
2018-10-12T11:27:51.295Z,27.92
2018-10-12T11:28:51.296Z,27.95
2018-10-12T11:29:51.304Z,27.60
2018-10-12T11:30:51.307Z,27.40
2018-10-12T11:31:51.320Z,27.25
2018-10-12T11:32:51.413Z,27.21
2018-10-12T11:33:51.324Z,27.35
2018-10-12T11:34:51.328Z,27.36
2018-10-12T11:35:51.332Z,27.58
2018-10-12T11:36:51.339Z,27.37
2018-10-12T11:37:51.348Z,27.30
2018-10-12T11:38:51.348Z,27.39
2018-10-12T11:39:51.374Z,27.14
2018-10-12T11:40:51.358Z,27.14
2018-10-12T11:41:51.365Z,27.15
2018-10-12T11:42:51.367Z,26.92
2018-10-12T11:43:51.371Z,26.96
2018-10-12T11:44:51.431Z,26.97
2018-10-12T11:45:51.379Z,26.95
2018-10-12T11:46:51.385Z,27.15
2018-10-12T11:47:51.388Z,27.36
2018-10-12T11:48:51.594Z,27.49
2018-10-12T11:49:51.396Z,27.48
2018-10-12T11:50:51.401Z,27.15
2018-10-12T11:51:51.405Z,27.20
2018-10-12T11:52:51.411Z,27.25
2018-10-12T11:53:51.452Z,27.20
2018-10-12T11:54:51.417Z,27.11
2018-10-12T11:55:51.422Z,27.33
2018-10-12T11:56:51.429Z,27.48
2018-10-12T11:57:51.430Z,27.80
2018-10-12T11:58:51.439Z,27.68
2018-10-12T11:59:51.445Z,27.49
2018-10-12T12:00:51.481Z,27.37
2018-10-12T12:01:51.453Z,27.51
2018-10-12T12:02:51.452Z,27.47
2018-10-12T12:03:51.456Z,27.58
2018-10-12T12:04:51.461Z,27.77
2018-10-12T12:05:51.468Z,27.82
2018-10-12T12:06:51.469Z,27.89
2018-10-12T12:07:51.475Z,27.92
2018-10-12T12:08:51.478Z,27.60
2018-10-12T12:09:51.482Z,27.96
2018-10-12T12:10:51.487Z,28.12
2018-10-12T12:11:51.492Z,28.19
2018-10-12T12:12:51.501Z,28.30
2018-10-12T12:13:51.668Z,28.33
2018-10-12T12:14:51.507Z,28.48
2018-10-12T12:15:51.509Z,28.78
2018-10-12T12:16:51.515Z,28.64
2018-10-12T12:17:51.517Z,28.78
2018-10-12T12:18:51.523Z,28.59
2018-10-12T12:19:51.527Z,28.79
2018-10-12T12:20:51.532Z,28.56
2018-10-12T12:21:51.536Z,28.32
2018-10-12T12:22:51.540Z,28.37
2018-10-12T12:23:51.549Z,28.42
2018-10-12T12:24:51.550Z,28.67
2018-10-12T12:25:51.557Z,28.42
2018-10-12T12:26:51.556Z,28.37
2018-10-12T12:27:51.561Z,28.62
2018-10-12T12:28:51.566Z,28.49
2018-10-12T12:29:51.569Z,28.72
2018-10-12T12:30:51.574Z,28.81
2018-10-12T12:31:51.578Z,29.04
2018-10-12T12:32:51.583Z,28.93
2018-10-12T12:33:51.585Z,28.85
2018-10-12T12:34:51.734Z,28.88
2018-10-12T12:35:52.138Z,28.75
2018-10-12T12:36:51.603Z,28.82
2018-10-12T12:37:51.603Z,28.93
2018-10-12T12:38:51.608Z,29.44
2018-10-12T12:39:51.613Z,29.50
2018-10-12T12:40:51.620Z,29.57
2018-10-12T12:41:51.622Z,29.73
2018-10-12T12:42:51.631Z,29.97
2018-10-12T12:43:51.631Z,29.79
2018-10-12T12:44:51.636Z,29.95
2018-10-12T12:45:51.641Z,30.31
2018-10-12T12:46:51.648Z,30.48
2018-10-12T12:47:51.740Z,30.46
2018-10-12T12:48:52.121Z,30.81
2018-10-12T12:49:51.668Z,30.65
2018-10-12T12:50:51.667Z,30.08
2018-10-12T12:51:51.676Z,29.47
2018-10-12T12:52:51.681Z,28.79
2018-10-12T12:53:51.796Z,28.27
2018-10-12T12:54:51.772Z,28.19
2018-10-12T12:55:51.694Z,28.15
2018-10-12T12:56:51.695Z,27.98
2018-10-12T12:57:51.699Z,28.10